Impacts TAF Board
For situational awareness. Not to be used for flight planning purposes.
IDs:

KHLG - Wheeling/Ohio Cnty, WV, US

Issued at 1723 UTC 02 Oct 2022
Updated at 1829 UTC 02 Oct 2022
Potential Impact None Slight Moderate High
Time1753Z 02/19Z 02/20Z 02/21Z 02/22Z 02/23Z 03/00Z 03/01Z 03/02Z 03/03Z 03/04Z 03/05Z 03/06Z 03/07Z>>
Type OBS PRVL PRVL PRVL PRVL PRVL PRVL PRVL PRVL PRVL PRVL PRVL PRVL PRVL
VIS 10 >6 >6 >6 >6 >6 >6 >6 >6 >6 >6 >6 >6 >6
CIG 27 25 40 40 40 -- -- -- -- -- -- -- -- --
Cover OVC OVC BKN BKN BKN SKC SKC SKC SKC SKC SKC SKC SKC SKC
FltCat MVFR MVFR VFR VFR VFR VFR VFR VFR VFR VFR VFR VFR VFR VFR
WX -RA -- -- -- -- -- -- -- -- -- -- -- -- --
WDir 50 30 20 20 20 20 20 20 20 20 20 20 20 20
WSpd 7 8 7 7 7 5 5 5 5 5 5 5 5 5
WGst -- -- -- -- -- -- -- -- -- -- -- -- -- --
WSHgt -- -- -- -- -- -- -- -- -- -- -- -- -- --
WSDir -- -- -- -- -- -- -- -- -- -- -- -- -- --
WSSpd -- -- -- -- -- -- -- -- -- -- -- -- -- --
Raw TAF
KHLG 021723Z 0218/0318 03008KT P6SM OVC025
  FM022000 02007KT P6SM BKN040
  FM022300 02005KT P6SM SKC


Raw METAR
KHLG 021753Z 05007KT 10SM -RA OVC027 14/10 A3015 RMK AO2 RAB38 SLP214 P0000 60001 T01390100 10139 20117 51008 $
KHLG 021653Z 05005KT 10SM OVC019 13/11 A3015 RMK AO2 RAE1558 SLP213 P0000 T01330106 $
KHLG 021553Z 02007KT 10SM -RA OVC017 13/11 A3014 RMK AO2 RAB47 SLP209 P0000 T01280106 $

METAR Board
Radar Display
Forecast Discussion
For situational awareness. Not to be used for flight planning purposes.